createdAt,value
2023-05-18T00:00:05.580Z,12.17
2023-05-18T00:02:32.966Z,12.18
2023-05-18T00:05:01.072Z,12.04
2023-05-18T00:07:28.451Z,12.09
2023-05-18T00:09:55.842Z,12.21
2023-05-18T00:12:23.188Z,12.11
2023-05-18T00:14:50.627Z,12.04
2023-05-18T00:17:19.516Z,12.07
2023-05-18T00:19:46.926Z,12.13
2023-05-18T00:22:14.352Z,12.20
2023-05-18T00:24:41.573Z,11.97
2023-05-18T00:27:08.922Z,11.93
2023-05-18T00:29:36.196Z,12.30
2023-05-18T00:32:04.143Z,12.27
2023-05-18T00:34:33.048Z,12.29
2023-05-18T00:37:00.432Z,12.06
2023-05-18T00:39:27.731Z,12.23
2023-05-18T00:41:55.354Z,12.19
2023-05-18T00:44:24.959Z,12.17
2023-05-18T00:46:52.729Z,12.38
2023-05-18T00:49:20.163Z,12.47
2023-05-18T00:51:49.639Z,12.39
2023-05-18T00:54:17.363Z,12.37
2023-05-18T00:56:45.011Z,12.42
2023-05-18T00:59:12.447Z,12.41
2023-05-18T01:01:39.861Z,12.53
2023-05-18T01:04:07.236Z,12.51
2023-05-18T01:06:34.612Z,12.43
2023-05-18T01:09:05.681Z,12.32
2023-05-18T01:11:40.123Z,12.08
2023-05-18T01:14:17.932Z,12.60
2023-05-18T01:16:56.899Z,12.33
2023-05-18T01:19:55.403Z,12.34
2023-05-18T01:22:37.259Z,12.18
2023-05-18T01:25:18.153Z,12.33
2023-05-18T01:27:48.837Z,12.47
2023-05-18T01:30:16.907Z,12.66
2023-05-18T01:32:46.893Z,12.43
2023-05-18T01:35:14.468Z,12.00
2023-05-18T01:37:41.833Z,12.54
2023-05-18T01:40:09.897Z,12.33
2023-05-18T01:42:43.972Z,12.76
2023-05-18T01:45:20.883Z,12.29
2023-05-18T01:47:49.086Z,12.59
2023-05-18T01:50:22.401Z,12.42
2023-05-18T01:52:57.167Z,12.42
2023-05-18T01:55:27.692Z,12.37
2023-05-18T01:57:57.354Z,12.03
2023-05-18T02:00:26.403Z,12.13
2023-05-18T02:02:53.730Z,12.05
2023-05-18T02:05:21.260Z,11.88
2023-05-18T02:07:49.278Z,11.91
2023-05-18T02:10:16.706Z,11.88
2023-05-18T02:12:44.642Z,12.72
2023-05-18T02:15:12.261Z,12.41
2023-05-18T02:17:40.948Z,12.54
2023-05-18T02:20:10.351Z,12.59
2023-05-18T02:22:37.793Z,12.68
2023-05-18T02:25:05.880Z,12.63
2023-05-18T02:27:33.258Z,12.77
2023-05-18T02:30:00.632Z,12.47
2023-05-18T02:32:28.226Z,12.33
2023-05-18T02:34:56.949Z,12.48
2023-05-18T02:37:24.206Z,12.41
2023-05-18T02:39:51.542Z,12.64
2023-05-18T02:42:18.861Z,12.71
2023-05-18T02:44:46.372Z,12.58
2023-05-18T02:47:16.294Z,12.72
2023-05-18T02:49:43.670Z,12.85
2023-05-18T02:52:12.429Z,12.62
2023-05-18T02:54:39.767Z,12.71
2023-05-18T02:57:14.511Z,12.45
2023-05-18T02:59:48.521Z,12.60
2023-05-18T03:02:16.539Z,12.84
2023-05-18T03:04:43.968Z,12.57
2023-05-18T03:07:12.794Z,12.66
2023-05-18T03:09:40.207Z,12.77
2023-05-18T03:12:09.114Z,12.86
2023-05-18T03:14:36.416Z,12.31
2023-05-18T03:17:05.376Z,13.00
2023-05-18T03:19:33.068Z,12.75
2023-05-18T03:22:01.155Z,12.93
2023-05-18T03:24:29.791Z,12.74
2023-05-18T03:26:58.647Z,12.84
2023-05-18T03:29:26.090Z,12.93
2023-05-18T03:31:54.141Z,12.53
2023-05-18T03:34:21.443Z,12.69
2023-05-18T03:36:49.098Z,12.75
2023-05-18T03:39:16.405Z,12.91
2023-05-18T03:41:45.139Z,12.44
2023-05-18T03:44:12.767Z,12.90
2023-05-18T03:46:40.752Z,13.10
2023-05-18T03:49:08.510Z,12.81
2023-05-18T03:51:40.189Z,12.54
2023-05-18T03:54:07.595Z,12.58
2023-05-18T03:56:37.171Z,12.81
2023-05-18T03:59:05.914Z,12.99
2023-05-18T04:01:33.520Z,13.02
2023-05-18T04:04:01.205Z,13.01
2023-05-18T04:06:28.661Z,13.04
2023-05-18T04:08:56.150Z,12.73
2023-05-18T04:11:25.931Z,12.54
2023-05-18T04:13:53.406Z,12.86
2023-05-18T04:16:22.256Z,13.04
2023-05-18T04:18:50.006Z,13.01
2023-05-18T04:21:17.359Z,13.11
2023-05-18T04:23:46.324Z,13.22
2023-05-18T04:26:14.346Z,13.22
2023-05-18T04:28:41.680Z,13.06
2023-05-18T04:31:09.105Z,13.69
2023-05-18T04:33:37.957Z,13.12
2023-05-18T04:36:06.174Z,12.67
2023-05-18T04:38:34.049Z,12.65
2023-05-18T04:41:02.431Z,12.71
2023-05-18T04:43:29.787Z,13.35
2023-05-18T04:45:57.224Z,13.59
2023-05-18T04:48:25.080Z,13.11
2023-05-18T04:50:53.764Z,12.95
2023-05-18T04:53:21.419Z,13.13
2023-05-18T04:55:49.589Z,13.32
2023-05-18T04:58:17.167Z,13.41
2023-05-18T05:00:44.733Z,13.22
2023-05-18T05:03:12.380Z,13.55
2023-05-18T05:05:39.727Z,13.76
2023-05-18T05:08:09.089Z,13.10
2023-05-18T05:10:36.434Z,14.15
2023-05-18T05:13:03.878Z,13.68
2023-05-18T05:15:31.398Z,13.96
2023-05-18T05:17:59.044Z,13.48
2023-05-18T05:20:26.389Z,13.43
2023-05-18T05:22:54.238Z,13.72
2023-05-18T05:25:26.348Z,13.44
2023-05-18T05:27:53.778Z,13.79
2023-05-18T05:30:22.488Z,13.72
2023-05-18T05:32:50.030Z,13.56
2023-05-18T05:35:17.770Z,13.71
2023-05-18T05:37:46.293Z,13.77
2023-05-18T05:40:13.921Z,14.00
2023-05-18T05:42:47.820Z,13.56
2023-05-18T05:45:15.140Z,13.64
2023-05-18T05:47:49.456Z,13.95
2023-05-18T05:50:18.551Z,13.66
2023-05-18T05:52:48.260Z,13.92
2023-05-18T05:55:16.193Z,14.20
2023-05-18T05:57:46.062Z,14.60
2023-05-18T06:00:15.464Z,14.85
2023-05-18T06:02:48.773Z,14.24
2023-05-18T06:05:21.162Z,14.41
2023-05-18T06:07:49.046Z,14.20
2023-05-18T06:10:17.012Z,14.61
2023-05-18T06:12:44.388Z,14.25
2023-05-18T06:15:11.825Z,14.61
2023-05-18T06:17:42.116Z,14.67
2023-05-18T06:20:10.551Z,14.59
2023-05-18T06:22:38.207Z,15.25
2023-05-18T06:25:20.220Z,15.50
2023-05-18T06:28:03.940Z,14.45
2023-05-18T06:30:51.565Z,15.35
2023-05-18T06:33:31.373Z,14.98
2023-05-18T06:35:58.860Z,14.86
2023-05-18T06:38:26.437Z,15.34
2023-05-18T06:40:56.791Z,15.96
2023-05-18T06:43:24.217Z,15.67
2023-05-18T06:46:23.520Z,16.09
2023-05-18T06:49:01.647Z,15.79
2023-05-18T06:51:29.110Z,15.16
2023-05-18T06:53:59.818Z,15.45
2023-05-18T06:56:27.975Z,15.29
2023-05-18T06:58:55.701Z,14.89
2023-05-18T07:01:26.738Z,15.22
2023-05-18T07:04:00.889Z,15.32
2023-05-18T07:06:28.414Z,16.26
2023-05-18T07:08:55.854Z,15.26
2023-05-18T07:11:23.326Z,15.11
2023-05-18T07:13:50.562Z,15.79
2023-05-18T07:16:17.884Z,16.05
2023-05-18T07:18:45.174Z,15.77
2023-05-18T07:21:17.146Z,16.08
2023-05-18T07:23:44.769Z,15.81
2023-05-18T07:26:12.193Z,15.43
2023-05-18T07:28:39.624Z,16.00
2023-05-18T07:31:07.018Z,15.71
2023-05-18T07:33:34.567Z,16.15
2023-05-18T07:36:04.699Z,16.36
2023-05-18T07:38:33.434Z,16.41
2023-05-18T07:41:00.916Z,16.73
2023-05-18T07:43:28.307Z,16.25
2023-05-18T07:45:55.583Z,16.43
2023-05-18T07:48:23.082Z,16.72
2023-05-18T07:50:50.387Z,16.70
2023-05-18T07:53:17.678Z,16.48
2023-05-18T07:55:46.374Z,16.03
2023-05-18T07:58:13.703Z,16.07
2023-05-18T08:00:40.968Z,16.10
2023-05-18T08:03:08.481Z,16.79
2023-05-18T08:05:35.996Z,16.87
2023-05-18T08:08:06.491Z,17.38
2023-05-18T08:10:34.339Z,16.86
2023-05-18T08:13:08.846Z,17.03
2023-05-18T08:15:36.657Z,16.76
2023-05-18T08:18:07.018Z,17.65
2023-05-18T08:20:34.454Z,17.99
2023-05-18T08:23:04.264Z,17.78
2023-05-18T08:25:31.978Z,18.15
2023-05-18T08:27:59.625Z,17.87
2023-05-18T08:30:28.486Z,17.87
2023-05-18T08:32:55.926Z,17.15
2023-05-18T08:35:23.558Z,17.61
2023-05-18T08:37:50.811Z,17.66
2023-05-18T08:40:18.211Z,17.25
2023-05-18T08:42:52.371Z,17.15
2023-05-18T08:45:28.677Z,18.04
2023-05-18T08:48:00.502Z,18.55
2023-05-18T08:50:33.312Z,18.92
2023-05-18T08:53:07.648Z,18.66
2023-05-18T08:55:40.225Z,18.26
2023-05-18T08:58:09.176Z,18.77
2023-05-18T09:00:39.623Z,17.87
2023-05-18T09:03:09.918Z,18.47
2023-05-18T09:05:38.370Z,17.61
2023-05-18T09:08:07.347Z,19.46
2023-05-18T09:10:34.749Z,19.41
2023-05-18T09:13:04.638Z,18.69
2023-05-18T09:15:33.227Z,18.55
2023-05-18T09:18:00.592Z,18.79
2023-05-18T09:20:29.842Z,18.64
2023-05-18T09:22:58.364Z,18.32
2023-05-18T09:25:28.145Z,18.51
2023-05-18T09:27:55.607Z,19.04
2023-05-18T09:30:25.091Z,21.63
2023-05-18T09:32:53.248Z,21.81
2023-05-18T09:35:20.878Z,21.06
2023-05-18T09:37:50.029Z,21.46
2023-05-18T09:40:17.360Z,22.93
2023-05-18T09:42:45.199Z,22.34
2023-05-18T09:45:18.106Z,23.06
2023-05-18T09:47:45.827Z,23.84
2023-05-18T09:50:13.199Z,23.39
2023-05-18T09:52:41.851Z,22.73
2023-05-18T09:55:10.993Z,22.71
2023-05-18T09:57:43.725Z,22.49
2023-05-18T10:00:12.803Z,23.77
2023-05-18T10:02:41.154Z,22.75
2023-05-18T10:05:19.580Z,23.73
2023-05-18T10:07:46.963Z,22.61
2023-05-18T10:10:17.960Z,24.62
2023-05-18T10:12:45.410Z,21.07
2023-05-18T10:15:18.516Z,19.93
2023-05-18T10:17:47.207Z,21.23
2023-05-18T10:20:17.600Z,21.46
2023-05-18T10:22:48.626Z,20.43
2023-05-18T10:25:19.837Z,21.53
2023-05-18T10:27:49.333Z,22.00
2023-05-18T10:30:17.105Z,21.89
2023-05-18T10:32:46.222Z,22.25
2023-05-18T10:35:14.026Z,22.54
2023-05-18T10:37:45.116Z,20.85
2023-05-18T10:40:13.714Z,21.87
2023-05-18T10:42:43.515Z,20.63
2023-05-18T10:45:11.043Z,21.70
2023-05-18T10:47:40.136Z,22.06
2023-05-18T10:50:08.960Z,22.53
2023-05-18T10:52:37.696Z,21.65
2023-05-18T10:55:06.242Z,21.10
2023-05-18T10:57:37.945Z,21.53
2023-05-18T11:00:09.321Z,22.19
2023-05-18T11:02:39.445Z,21.56
2023-05-18T11:05:07.924Z,22.91
2023-05-18T11:07:36.434Z,22.34
2023-05-18T11:10:09.993Z,22.65
2023-05-18T11:12:38.508Z,21.22
2023-05-18T11:15:09.022Z,22.15
2023-05-18T11:17:36.528Z,22.71
2023-05-18T11:20:11.901Z,21.18
2023-05-18T11:22:46.792Z,21.95
2023-05-18T11:25:45.040Z,21.42
2023-05-18T11:28:13.238Z,22.79
2023-05-18T11:30:51.757Z,24.01
2023-05-18T11:33:25.099Z,24.12
2023-05-18T11:36:02.564Z,23.51
2023-05-18T11:38:49.979Z,22.80
2023-05-18T11:41:28.674Z,21.85
2023-05-18T11:44:16.536Z,22.61
2023-05-18T11:46:59.634Z,22.77
2023-05-18T11:49:29.965Z,23.33
2023-05-18T11:52:02.506Z,23.09
2023-05-18T11:54:34.216Z,24.21
2023-05-18T11:57:02.116Z,24.33
2023-05-18T11:59:31.979Z,23.78
2023-05-18T12:02:03.522Z,23.29
2023-05-18T12:04:31.391Z,25.42
2023-05-18T12:06:59.299Z,24.21
2023-05-18T12:09:27.268Z,24.57
2023-05-18T12:11:55.531Z,23.52
2023-05-18T12:14:23.266Z,24.70
2023-05-18T12:16:51.765Z,22.97
2023-05-18T12:19:20.767Z,24.73
2023-05-18T12:21:48.242Z,23.19
2023-05-18T12:24:15.622Z,23.26
2023-05-18T12:26:42.993Z,25.32
2023-05-18T12:29:10.390Z,24.13
2023-05-18T12:31:40.585Z,25.79
2023-05-18T12:34:09.330Z,25.68
2023-05-18T12:36:51.054Z,25.92
2023-05-18T12:39:18.354Z,25.37
2023-05-18T12:41:45.722Z,26.00
2023-05-18T12:44:13.424Z,25.08
2023-05-18T12:46:42.110Z,25.37
2023-05-18T12:49:10.276Z,24.46
2023-05-18T12:51:39.373Z,24.28
2023-05-18T12:54:08.537Z,24.53
2023-05-18T12:56:52.914Z,24.29
2023-05-18T12:59:20.468Z,24.09
2023-05-18T13:01:47.870Z,26.78
2023-05-18T13:04:15.570Z,26.95
2023-05-18T13:06:43.459Z,26.96
2023-05-18T13:09:14.065Z,25.02
2023-05-18T13:11:47.172Z,26.70
2023-05-18T13:14:14.869Z,26.34
2023-05-18T13:16:45.492Z,28.29
2023-05-18T13:19:17.246Z,26.61
2023-05-18T13:21:44.869Z,25.98
2023-05-18T13:24:13.735Z,27.05
2023-05-18T13:26:41.802Z,27.08
2023-05-18T13:29:09.123Z,27.61
2023-05-18T13:31:36.527Z,28.09
2023-05-18T13:34:03.884Z,27.42
2023-05-18T13:36:31.263Z,25.88
2023-05-18T13:38:59.037Z,27.44
2023-05-18T13:41:27.937Z,27.15
2023-05-18T13:43:55.249Z,26.91
2023-05-18T13:46:22.869Z,28.60
2023-05-18T13:48:50.213Z,26.38
2023-05-18T13:51:17.914Z,27.10
2023-05-18T13:53:45.277Z,26.78
2023-05-18T13:56:12.723Z,26.96
2023-05-18T13:58:41.748Z,27.16
2023-05-18T14:01:10.188Z,26.76
2023-05-18T14:03:39.889Z,27.55
2023-05-18T14:06:07.738Z,26.01
2023-05-18T14:08:36.350Z,27.32
2023-05-18T14:11:03.880Z,25.83
2023-05-18T14:13:31.219Z,27.13
2023-05-18T14:16:00.712Z,26.12
2023-05-18T14:18:28.060Z,26.63
2023-05-18T14:20:55.388Z,27.54
2023-05-18T14:23:24.387Z,27.44
2023-05-18T14:25:52.386Z,26.69
2023-05-18T14:28:19.752Z,27.00
2023-05-18T14:30:47.119Z,26.99
2023-05-18T14:33:16.029Z,26.00
2023-05-18T14:35:43.499Z,27.39
2023-05-18T14:38:10.908Z,28.21
2023-05-18T14:40:38.328Z,26.59
2023-05-18T14:43:05.624Z,26.57
2023-05-18T14:45:32.880Z,27.00
2023-05-18T14:48:00.406Z,26.84
2023-05-18T14:50:29.468Z,27.62
2023-05-18T14:52:56.973Z,27.20
2023-05-18T14:55:24.272Z,26.45
2023-05-18T14:57:51.618Z,27.06
2023-05-18T15:00:19.458Z,27.28
2023-05-18T15:02:46.939Z,27.16
2023-05-18T15:05:14.847Z,27.07
2023-05-18T15:07:43.545Z,27.23
2023-05-18T15:10:11.167Z,26.27
2023-05-18T15:12:38.464Z,26.56
2023-05-18T15:15:06.890Z,26.19
2023-05-18T15:17:34.464Z,26.35
2023-05-18T15:20:02.071Z,27.14
2023-05-18T15:22:29.531Z,26.25
2023-05-18T15:24:58.230Z,26.33
2023-05-18T15:27:26.123Z,27.10
2023-05-18T15:29:53.805Z,26.91
2023-05-18T15:32:21.275Z,26.87
2023-05-18T15:34:48.565Z,26.66
2023-05-18T15:37:15.886Z,26.63
2023-05-18T15:39:43.186Z,26.22
2023-05-18T15:42:12.152Z,27.42
2023-05-18T15:44:39.504Z,25.92
2023-05-18T15:47:07.135Z,26.24
2023-05-18T15:49:34.379Z,26.02
2023-05-18T15:52:01.863Z,26.12
2023-05-18T15:54:29.418Z,26.62
2023-05-18T15:56:57.101Z,26.98
2023-05-18T15:59:25.822Z,27.25
2023-05-18T16:01:53.744Z,26.87
2023-05-18T16:04:21.041Z,26.57
2023-05-18T16:06:48.504Z,26.60
2023-05-18T16:09:15.972Z,26.86
2023-05-18T16:11:43.326Z,26.54
2023-05-18T16:14:10.708Z,26.88
2023-05-18T16:16:39.909Z,27.29
2023-05-18T16:19:07.204Z,26.48
2023-05-18T16:21:34.596Z,27.17
2023-05-18T16:24:02.474Z,27.22
2023-05-18T16:26:30.070Z,27.68
2023-05-18T16:28:57.342Z,27.72
2023-05-18T16:31:24.752Z,27.60
2023-05-18T16:33:53.354Z,27.53
2023-05-18T16:36:20.871Z,27.18
2023-05-18T16:38:48.160Z,27.02
2023-05-18T16:41:15.601Z,26.38
2023-05-18T16:43:43.112Z,26.70
2023-05-18T16:46:10.837Z,26.47
2023-05-18T16:48:38.204Z,26.73
2023-05-18T16:51:07.038Z,26.87
2023-05-18T16:53:34.658Z,25.73
2023-05-18T16:56:02.742Z,26.22
2023-05-18T16:58:30.096Z,25.48
2023-05-18T17:00:57.477Z,27.84
2023-05-18T17:03:24.967Z,26.73
2023-05-18T17:05:52.365Z,25.93
2023-05-18T17:08:21.365Z,26.78
2023-05-18T17:10:48.698Z,26.36
2023-05-18T17:13:16.053Z,26.03
2023-05-18T17:15:43.652Z,25.92
2023-05-18T17:18:11.019Z,26.31
2023-05-18T17:20:38.463Z,25.15
2023-05-18T17:23:05.766Z,25.13
2023-05-18T17:25:34.640Z,25.21
2023-05-18T17:28:01.943Z,24.95
2023-05-18T17:30:29.364Z,25.55
2023-05-18T17:32:56.892Z,25.60
2023-05-18T17:35:24.253Z,25.02
2023-05-18T17:37:51.532Z,24.23
2023-05-18T17:40:18.919Z,24.98
2023-05-18T17:42:47.535Z,23.80
2023-05-18T17:45:15.075Z,24.23
2023-05-18T17:47:42.395Z,24.40
2023-05-18T17:50:10.019Z,24.62
2023-05-18T17:52:37.411Z,24.69
2023-05-18T17:55:05.771Z,24.50
2023-05-18T17:57:33.098Z,24.35
2023-05-18T18:00:02.039Z,23.96
2023-05-18T18:02:38.540Z,24.29
2023-05-18T18:05:06.152Z,24.07
2023-05-18T18:07:33.421Z,24.20
2023-05-18T18:10:00.767Z,23.93
2023-05-18T18:12:28.132Z,24.04
2023-05-18T18:14:55.541Z,23.46
2023-05-18T18:17:24.363Z,22.98
2023-05-18T18:19:51.877Z,22.53
2023-05-18T18:22:19.129Z,22.23
2023-05-18T18:24:46.481Z,21.74
2023-05-18T18:27:15.220Z,21.43
2023-05-18T18:29:42.618Z,21.70
2023-05-18T18:32:09.984Z,21.58
2023-05-18T18:34:38.718Z,21.32
2023-05-18T18:37:06.104Z,20.96
2023-05-18T18:39:33.436Z,20.93
2023-05-18T18:42:00.840Z,20.74
2023-05-18T18:44:28.201Z,20.69
2023-05-18T18:46:55.691Z,20.87
2023-05-18T18:49:23.135Z,20.55
2023-05-18T18:51:51.860Z,20.14
2023-05-18T18:54:19.303Z,19.96
2023-05-18T18:56:46.632Z,19.85
2023-05-18T18:59:13.993Z,20.03
2023-05-18T19:01:41.274Z,19.89
2023-05-18T19:04:08.617Z,19.65
2023-05-18T19:06:35.945Z,19.69
2023-05-18T19:09:04.912Z,19.06
2023-05-18T19:11:32.513Z,19.52
2023-05-18T19:13:59.829Z,19.55
2023-05-18T19:16:27.106Z,19.61
2023-05-18T19:18:54.536Z,19.42
2023-05-18T19:21:21.864Z,19.04
2023-05-18T19:23:49.527Z,19.15
2023-05-18T19:26:18.490Z,19.02
2023-05-18T19:28:45.838Z,18.84
2023-05-18T19:31:13.188Z,18.29
2023-05-18T19:33:40.794Z,18.06
2023-05-18T19:36:08.597Z,17.68
2023-05-18T19:38:36.284Z,17.56
2023-05-18T19:41:03.645Z,17.55
2023-05-18T19:43:32.756Z,17.57
2023-05-18T19:46:00.273Z,17.38
2023-05-18T19:48:27.730Z,16.92
2023-05-18T19:50:55.243Z,17.01
2023-05-18T19:53:23.130Z,16.99
2023-05-18T19:55:50.692Z,16.76
2023-05-18T19:58:18.000Z,16.63
2023-05-18T20:00:46.881Z,16.54
2023-05-18T20:03:14.403Z,16.54
2023-05-18T20:05:41.883Z,16.96
2023-05-18T20:08:09.668Z,16.71
2023-05-18T20:10:37.040Z,16.50
2023-05-18T20:13:04.394Z,16.71
2023-05-18T20:15:31.855Z,16.48
2023-05-18T20:18:00.885Z,16.45
2023-05-18T20:20:28.403Z,16.31
2023-05-18T20:22:55.792Z,16.02
2023-05-18T20:25:23.147Z,15.83
2023-05-18T20:27:50.538Z,15.97
2023-05-18T20:30:18.204Z,15.75
2023-05-18T20:32:45.596Z,15.91
2023-05-18T20:35:14.882Z,16.19
2023-05-18T20:37:42.608Z,16.29
2023-05-18T20:40:10.553Z,15.95
2023-05-18T20:42:38.093Z,15.77
2023-05-18T20:45:06.178Z,15.98
2023-05-18T20:47:34.148Z,15.88
2023-05-18T20:50:02.600Z,15.91
2023-05-18T20:52:31.793Z,15.66
2023-05-18T20:54:59.334Z,15.70
2023-05-18T20:57:27.128Z,16.12
2023-05-18T20:59:54.497Z,16.02
2023-05-18T21:02:22.075Z,15.90
2023-05-18T21:04:49.514Z,15.64
2023-05-18T21:07:16.924Z,15.75
2023-05-18T21:09:46.425Z,15.46
2023-05-18T21:12:13.958Z,15.52
2023-05-18T21:14:41.489Z,15.06
2023-05-18T21:17:09.107Z,15.20
2023-05-18T21:19:36.366Z,15.58
2023-05-18T21:22:04.178Z,15.21
2023-05-18T21:24:34.640Z,15.20
2023-05-18T21:27:03.950Z,15.53
2023-05-18T21:29:31.594Z,15.26
2023-05-18T21:31:59.174Z,15.21
2023-05-18T21:34:26.939Z,15.07
2023-05-18T21:36:54.426Z,14.81
2023-05-18T21:39:22.066Z,14.94
2023-05-18T21:41:49.561Z,14.71
2023-05-18T21:44:18.276Z,15.03
2023-05-18T21:46:45.675Z,14.90
2023-05-18T21:49:12.983Z,15.07
2023-05-18T21:51:41.152Z,14.92
2023-05-18T21:54:08.695Z,14.81
2023-05-18T21:56:36.289Z,14.91
2023-05-18T21:59:03.711Z,14.85
2023-05-18T22:01:32.537Z,14.84
2023-05-18T22:03:59.846Z,14.93
2023-05-18T22:06:28.151Z,14.72
2023-05-18T22:08:55.494Z,14.55
2023-05-18T22:11:22.842Z,14.62
2023-05-18T22:13:50.144Z,14.55
2023-05-18T22:16:17.638Z,14.97
2023-05-18T22:18:46.296Z,14.98
2023-05-18T22:21:13.662Z,14.98
2023-05-18T22:23:41.086Z,14.63
2023-05-18T22:26:08.518Z,14.75
2023-05-18T22:28:35.833Z,14.45
2023-05-18T22:31:03.198Z,14.66
2023-05-18T22:33:30.445Z,14.62
2023-05-18T22:35:59.188Z,14.23
2023-05-18T22:38:26.486Z,14.50
2023-05-18T22:40:53.770Z,14.46
2023-05-18T22:43:21.095Z,14.78
2023-05-18T22:45:49.091Z,14.70
2023-05-18T22:48:16.451Z,14.20
2023-05-18T22:50:43.878Z,14.42
2023-05-18T22:53:12.566Z,14.45
2023-05-18T22:55:39.961Z,14.64
2023-05-18T22:58:07.242Z,14.75
2023-05-18T23:00:36.122Z,14.67
2023-05-18T23:03:03.640Z,14.41
2023-05-18T23:05:31.142Z,14.70
2023-05-18T23:07:58.481Z,14.66
2023-05-18T23:10:27.406Z,14.73
2023-05-18T23:12:54.739Z,14.41
2023-05-18T23:15:22.642Z,14.56
2023-05-18T23:17:50.252Z,14.01
2023-05-18T23:20:17.794Z,14.31
2023-05-18T23:22:45.124Z,13.98
2023-05-18T23:25:12.496Z,14.31
2023-05-18T23:27:41.540Z,14.07
2023-05-18T23:30:09.736Z,14.05
2023-05-18T23:32:38.089Z,13.92
2023-05-18T23:35:06.680Z,13.73
2023-05-18T23:37:38.072Z,14.00
2023-05-18T23:40:10.165Z,14.13
2023-05-18T23:42:38.474Z,13.77
2023-05-18T23:45:09.008Z,13.88
2023-05-18T23:47:37.042Z,13.66
2023-05-18T23:50:05.772Z,13.75
2023-05-18T23:52:34.654Z,13.66
2023-05-18T23:55:03.497Z,13.82
2023-05-18T23:57:31.577Z,13.70
